Maldives Meteorological Service

METAR

Station
VRMM
METAR VRMM 210600Z 24008KT 9999 FEW018 BKN280 32/26 Q1008 NOSIG=
VRMH
METAR VRMH 210600Z 24007KT 9999 FEW018TCU BKN250 30/26 Q1008=
VRMK
METAR VRMK 210600Z 26004KT 9999 FEW019 BKN270 32/26 Q1009=
VRMT
METAR VRMT 210600Z 25006KT 9999 FEW018TCU BKN260 31/26 Q1009=
VRMG
METAR VRMG 210600Z 25007KT 9999 FEW018TCU 30/26 Q1009 NOSIG=
Last Updated : 2017-08-21 11:01:05

SPECI

Station
VRMM
VRMH
VRMK
VRMT
VRMG
Last Updated : 2017-08-21 11:01:05